Terminal Aerodrome Forecast
Issued by NWS Green Bay, WI

Home | Current Version | Previous Version | Text Only | Print | Product List | Glossary Off
Versions: 1 2 3 4 5 6 7 8 9 10 11 12 13 14 15 16 17 18 19 20 21 22 23 24 25 26 27 28 29 30 31 32

149
FTUS43 KGRB 221404 AAA
TAFGRB
TAF AMD
KGRB 221404Z 2214/2312 21008KT P6SM -SHRA BKN018 OVC030
      WS020/20035KT
      TEMPO 2214/2215 4SM -SHRA BR
     FM221500 28010KT P6SM -SHRA SCT012 OVC025
      TEMPO 2215/2217 5SM -SHRA BR BKN012
     FM221700 29008KT P6SM -SHRA OVC024
     FM222100 28006KT P6SM -SHRA OVC035
     FM222300 24003KT P6SM BKN050
     FM230200 24003KT P6SM SKC
      TEMPO 2308/2312 1 1/2SM BR=

USA.gov is the U.S. government's official web portal to all federal, state and local government web resources and services.